sensor_id;sensor_type;location;lat;lon;timestamp;P1;durP1;ratioP1;P2;durP2;ratioP2
74777;SDS011;63298;53.164;8.610;2022-12-08T00:01:14;4.43;;;2.38;;
74777;SDS011;63298;53.164;8.610;2022-12-08T00:03:41;6.18;;;2.30;;
74777;SDS011;63298;53.164;8.610;2022-12-08T00:06:07;5.50;;;2.28;;
74777;SDS011;63298;53.164;8.610;2022-12-08T00:08:45;3.55;;;2.28;;
74777;SDS011;63298;53.164;8.610;2022-12-08T00:11:11;3.30;;;2.33;;
74777;SDS011;63298;53.164;8.610;2022-12-08T00:13:37;4.15;;;1.98;;
74777;SDS011;63298;53.164;8.610;2022-12-08T00:16:02;2.73;;;1.90;;
74777;SDS011;63298;53.164;8.610;2022-12-08T00:18:27;6.80;;;2.47;;
74777;SDS011;63298;53.164;8.610;2022-12-08T00:20:54;4.77;;;2.37;;
74777;SDS011;63298;53.164;8.610;2022-12-08T00:23:20;7.13;;;2.45;;
74777;SDS011;63298;53.164;8.610;2022-12-08T00:25:45;6.07;;;2.13;;
74777;SDS011;63298;53.164;8.610;2022-12-08T00:28:11;5.13;;;2.10;;
74777;SDS011;63298;53.164;8.610;2022-12-08T00:30:38;2.50;;;1.85;;
74777;SDS011;63298;53.164;8.610;2022-12-08T00:33:04;5.20;;;1.83;;
74777;SDS011;63298;53.164;8.610;2022-12-08T00:35:29;2.77;;;1.83;;
74777;SDS011;63298;53.164;8.610;2022-12-08T00:37:54;5.40;;;1.70;;
74777;SDS011;63298;53.164;8.610;2022-12-08T00:40:20;5.20;;;1.55;;
74777;SDS011;63298;53.164;8.610;2022-12-08T00:42:45;8.38;;;1.80;;
74777;SDS011;63298;53.164;8.610;2022-12-08T00:45:10;1.50;;;1.40;;
74777;SDS011;63298;53.164;8.610;2022-12-08T00:47:36;3.63;;;1.73;;
74777;SDS011;63298;53.164;8.610;2022-12-08T00:50:01;2.35;;;1.35;;
74777;SDS011;63298;53.164;8.610;2022-12-08T00:52:26;3.28;;;1.75;;
74777;SDS011;63298;53.164;8.610;2022-12-08T00:54:52;4.47;;;1.57;;
74777;SDS011;63298;53.164;8.610;2022-12-08T00:57:17;1.80;;;1.30;;
74777;SDS011;63298;53.164;8.610;2022-12-08T00:59:42;5.68;;;1.70;;
74777;SDS011;63298;53.164;8.610;2022-12-08T01:02:07;2.70;;;1.23;;
74777;SDS011;63298;53.164;8.610;2022-12-08T01:04:33;4.37;;;1.80;;
74777;SDS011;63298;53.164;8.610;2022-12-08T01:06:58;5.67;;;1.73;;
74777;SDS011;63298;53.164;8.610;2022-12-08T01:09:23;2.30;;;1.23;;
74777;SDS011;63298;53.164;8.610;2022-12-08T01:11:48;4.93;;;1.40;;
74777;SDS011;63298;53.164;8.610;2022-12-08T01:14:14;2.45;;;1.67;;
74777;SDS011;63298;53.164;8.610;2022-12-08T01:16:39;2.60;;;1.48;;
74777;SDS011;63298;53.164;8.610;2022-12-08T01:19:09;2.60;;;1.85;;
74777;SDS011;63298;53.164;8.610;2022-12-08T01:21:36;3.20;;;1.40;;
74777;SDS011;63298;53.164;8.610;2022-12-08T01:24:04;5.22;;;1.73;;
74777;SDS011;63298;53.164;8.610;2022-12-08T01:26:30;1.90;;;1.48;;
74777;SDS011;63298;53.164;8.610;2022-12-08T01:28:55;1.67;;;1.30;;
74777;SDS011;63298;53.164;8.610;2022-12-08T01:31:21;5.30;;;1.55;;
74777;SDS011;63298;53.164;8.610;2022-12-08T01:33:47;3.80;;;1.52;;
74777;SDS011;63298;53.164;8.610;2022-12-08T01:36:18;3.30;;;1.75;;
74777;SDS011;63298;53.164;8.610;2022-12-08T01:38:51;1.70;;;1.20;;
74777;SDS011;63298;53.164;8.610;2022-12-08T01:41:18;2.40;;;1.15;;
74777;SDS011;63298;53.164;8.610;2022-12-08T01:46:26;1.58;;;1.42;;
74777;SDS011;63298;53.164;8.610;2022-12-08T01:49:03;2.13;;;1.10;;
74777;SDS011;63298;53.164;8.610;2022-12-08T01:51:34;5.68;;;1.48;;
74777;SDS011;63298;53.164;8.610;2022-12-08T01:54:05;2.67;;;1.20;;
74777;SDS011;63298;53.164;8.610;2022-12-08T01:56:37;2.70;;;1.40;;
74777;SDS011;63298;53.164;8.610;2022-12-08T01:59:07;2.88;;;1.30;;
74777;SDS011;63298;53.164;8.610;2022-12-08T02:01:34;3.85;;;1.33;;
74777;SDS011;63298;53.164;8.610;2022-12-08T02:04:00;7.35;;;1.67;;
74777;SDS011;63298;53.164;8.610;2022-12-08T02:06:27;5.05;;;1.65;;
74777;SDS011;63298;53.164;8.610;2022-12-08T02:08:58;7.93;;;1.52;;
74777;SDS011;63298;53.164;8.610;2022-12-08T02:11:25;2.90;;;1.23;;
74777;SDS011;63298;53.164;8.610;2022-12-08T02:13:50;3.47;;;1.58;;
74777;SDS011;63298;53.164;8.610;2022-12-08T02:24:50;6.50;;;1.42;;
74777;SDS011;63298;53.164;8.610;2022-12-08T02:27:52;4.25;;;1.63;;
74777;SDS011;63298;53.164;8.610;2022-12-08T02:36:16;5.47;;;1.65;;
74777;SDS011;63298;53.164;8.610;2022-12-08T02:41:37;5.00;;;1.50;;
74777;SDS011;63298;53.164;8.610;2022-12-08T02:47:17;6.30;;;1.73;;
74777;SDS011;63298;53.164;8.610;2022-12-08T02:49:42;4.95;;;1.40;;
74777;SDS011;63298;53.164;8.610;2022-12-08T02:54:36;3.08;;;1.60;;
74777;SDS011;63298;53.164;8.610;2022-12-08T02:59:55;3.77;;;1.43;;
74777;SDS011;63298;53.164;8.610;2022-12-08T03:08:35;2.03;;;1.33;;
74777;SDS011;63298;53.164;8.610;2022-12-08T03:13:43;3.65;;;1.38;;
74777;SDS011;63298;53.164;8.610;2022-12-08T03:16:11;3.67;;;1.50;;
74777;SDS011;63298;53.164;8.610;2022-12-08T03:18:40;4.88;;;1.60;;
74777;SDS011;63298;53.164;8.610;2022-12-08T03:21:09;4.18;;;1.65;;
74777;SDS011;63298;53.164;8.610;2022-12-08T03:23:38;7.95;;;1.45;;
74777;SDS011;63298;53.164;8.610;2022-12-08T03:26:07;1.42;;;1.23;;
74777;SDS011;63298;53.164;8.610;2022-12-08T03:28:38;4.05;;;1.73;;
74777;SDS011;63298;53.164;8.610;2022-12-08T03:31:05;5.28;;;1.30;;
74777;SDS011;63298;53.164;8.610;2022-12-08T03:33:37;2.50;;;1.45;;
74777;SDS011;63298;53.164;8.610;2022-12-08T03:36:07;1.90;;;1.10;;
74777;SDS011;63298;53.164;8.610;2022-12-08T03:38:41;1.63;;;1.20;;
74777;SDS011;63298;53.164;8.610;2022-12-08T03:41:08;3.42;;;1.30;;
74777;SDS011;63298;53.164;8.610;2022-12-08T03:43:34;1.67;;;1.30;;
74777;SDS011;63298;53.164;8.610;2022-12-08T03:45:59;2.08;;;1.20;;
74777;SDS011;63298;53.164;8.610;2022-12-08T03:48:25;2.15;;;1.33;;
74777;SDS011;63298;53.164;8.610;2022-12-08T03:50:50;1.95;;;1.15;;
74777;SDS011;63298;53.164;8.610;2022-12-08T03:53:15;0.90;;;0.90;;
74777;SDS011;63298;53.164;8.610;2022-12-08T03:55:41;5.13;;;1.00;;
74777;SDS011;63298;53.164;8.610;2022-12-08T03:58:06;5.70;;;1.05;;
74777;SDS011;63298;53.164;8.610;2022-12-08T04:00:31;6.22;;;1.10;;
74777;SDS011;63298;53.164;8.610;2022-12-08T04:02:57;6.65;;;1.38;;
74777;SDS011;63298;53.164;8.610;2022-12-08T04:05:22;2.33;;;1.20;;
74777;SDS011;63298;53.164;8.610;2022-12-08T04:07:47;3.67;;;1.00;;
74777;SDS011;63298;53.164;8.610;2022-12-08T04:10:13;2.53;;;1.23;;
74777;SDS011;63298;53.164;8.610;2022-12-08T04:12:38;0.98;;;0.98;;
74777;SDS011;63298;53.164;8.610;2022-12-08T04:15:03;0.88;;;0.88;;
74777;SDS011;63298;53.164;8.610;2022-12-08T04:17:29;2.45;;;1.10;;
74777;SDS011;63298;53.164;8.610;2022-12-08T04:19:54;1.30;;;1.20;;
74777;SDS011;63298;53.164;8.610;2022-12-08T04:22:20;0.93;;;0.93;;
74777;SDS011;63298;53.164;8.610;2022-12-08T04:24:45;1.05;;;0.88;;
74777;SDS011;63298;53.164;8.610;2022-12-08T04:27:11;1.00;;;0.90;;
74777;SDS011;63298;53.164;8.610;2022-12-08T04:29:36;1.40;;;1.20;;
74777;SDS011;63298;53.164;8.610;2022-12-08T04:32:01;1.20;;;1.00;;
74777;SDS011;63298;53.164;8.610;2022-12-08T04:34:27;1.92;;;0.90;;
74777;SDS011;63298;53.164;8.610;2022-12-08T04:36:52;2.27;;;0.93;;
74777;SDS011;63298;53.164;8.610;2022-12-08T04:39:17;2.78;;;0.90;;
74777;SDS011;63298;53.164;8.610;2022-12-08T04:41:43;4.95;;;1.13;;
74777;SDS011;63298;53.164;8.610;2022-12-08T04:44:08;1.10;;;1.00;;
74777;SDS011;63298;53.164;8.610;2022-12-08T04:46:33;1.35;;;1.15;;
74777;SDS011;63298;53.164;8.610;2022-12-08T04:48:58;2.40;;;0.90;;
74777;SDS011;63298;53.164;8.610;2022-12-08T04:51:24;2.17;;;1.10;;
74777;SDS011;63298;53.164;8.610;2022-12-08T04:53:49;1.95;;;0.80;;
74777;SDS011;63298;53.164;8.610;2022-12-08T04:56:15;1.10;;;1.00;;
74777;SDS011;63298;53.164;8.610;2022-12-08T04:58:42;0.95;;;0.88;;
74777;SDS011;63298;53.164;8.610;2022-12-08T05:01:08;1.20;;;0.90;;
74777;SDS011;63298;53.164;8.610;2022-12-08T05:03:34;1.88;;;0.90;;
74777;SDS011;63298;53.164;8.610;2022-12-08T05:05:59;1.13;;;0.85;;
74777;SDS011;63298;53.164;8.610;2022-12-08T05:08:25;2.05;;;1.10;;
74777;SDS011;63298;53.164;8.610;2022-12-08T05:10:50;1.10;;;1.00;;
74777;SDS011;63298;53.164;8.610;2022-12-08T05:13:16;2.47;;;1.30;;
74777;SDS011;63298;53.164;8.610;2022-12-08T05:15:41;0.88;;;0.88;;
74777;SDS011;63298;53.164;8.610;2022-12-08T05:18:06;1.08;;;0.73;;
74777;SDS011;63298;53.164;8.610;2022-12-08T05:20:32;1.63;;;1.53;;
74777;SDS011;63298;53.164;8.610;2022-12-08T05:22:58;1.85;;;0.90;;
74777;SDS011;63298;53.164;8.610;2022-12-08T05:25:23;2.15;;;1.00;;
74777;SDS011;63298;53.164;8.610;2022-12-08T05:27:48;1.77;;;0.93;;
74777;SDS011;63298;53.164;8.610;2022-12-08T05:30:14;1.02;;;0.80;;
74777;SDS011;63298;53.164;8.610;2022-12-08T05:32:39;4.05;;;0.98;;
74777;SDS011;63298;53.164;8.610;2022-12-08T05:35:04;0.80;;;0.80;;
74777;SDS011;63298;53.164;8.610;2022-12-08T05:37:30;0.90;;;0.90;;
74777;SDS011;63298;53.164;8.610;2022-12-08T05:39:56;1.13;;;0.90;;
74777;SDS011;63298;53.164;8.610;2022-12-08T05:42:21;1.77;;;0.80;;
74777;SDS011;63298;53.164;8.610;2022-12-08T05:44:46;1.77;;;1.02;;
74777;SDS011;63298;53.164;8.610;2022-12-08T05:47:12;1.50;;;1.13;;
74777;SDS011;63298;53.164;8.610;2022-12-08T05:49:37;2.55;;;1.10;;
74777;SDS011;63298;53.164;8.610;2022-12-08T05:52:02;0.98;;;0.95;;
74777;SDS011;63298;53.164;8.610;2022-12-08T05:54:28;1.98;;;1.20;;
74777;SDS011;63298;53.164;8.610;2022-12-08T05:56:53;1.63;;;1.13;;
74777;SDS011;63298;53.164;8.610;2022-12-08T05:59:18;1.73;;;1.08;;
74777;SDS011;63298;53.164;8.610;2022-12-08T06:01:43;1.20;;;1.10;;
74777;SDS011;63298;53.164;8.610;2022-12-08T06:04:09;1.43;;;1.00;;
74777;SDS011;63298;53.164;8.610;2022-12-08T06:06:34;1.33;;;1.23;;
74777;SDS011;63298;53.164;8.610;2022-12-08T06:09:04;2.92;;;1.42;;
74777;SDS011;63298;53.164;8.610;2022-12-08T06:11:30;1.50;;;1.40;;
74777;SDS011;63298;53.164;8.610;2022-12-08T06:13:57;1.08;;;1.02;;
74777;SDS011;63298;53.164;8.610;2022-12-08T06:16:23;3.42;;;1.40;;
74777;SDS011;63298;53.164;8.610;2022-12-08T06:18:50;0.98;;;0.98;;
74777;SDS011;63298;53.164;8.610;2022-12-08T06:21:16;1.65;;;1.02;;
74777;SDS011;63298;53.164;8.610;2022-12-08T06:23:41;1.00;;;1.00;;
74777;SDS011;63298;53.164;8.610;2022-12-08T06:26:12;1.63;;;1.17;;
74777;SDS011;63298;53.164;8.610;2022-12-08T06:28:39;1.23;;;1.08;;
74777;SDS011;63298;53.164;8.610;2022-12-08T06:31:13;3.15;;;1.27;;
74777;SDS011;63298;53.164;8.610;2022-12-08T06:33:39;1.33;;;1.15;;
74777;SDS011;63298;53.164;8.610;2022-12-08T06:36:05;1.77;;;1.10;;
74777;SDS011;63298;53.164;8.610;2022-12-08T06:38:31;1.08;;;0.98;;
74777;SDS011;63298;53.164;8.610;2022-12-08T06:40:57;1.10;;;1.00;;
74777;SDS011;63298;53.164;8.610;2022-12-08T06:43:23;2.28;;;0.70;;
74777;SDS011;63298;53.164;8.610;2022-12-08T06:45:49;1.80;;;0.90;;
74777;SDS011;63298;53.164;8.610;2022-12-08T06:48:14;2.45;;;0.88;;
74777;SDS011;63298;53.164;8.610;2022-12-08T06:50:40;1.00;;;0.90;;
74777;SDS011;63298;53.164;8.610;2022-12-08T06:53:05;1.02;;;1.02;;
74777;SDS011;63298;53.164;8.610;2022-12-08T06:55:31;1.25;;;1.02;;
74777;SDS011;63298;53.164;8.610;2022-12-08T06:57:56;1.75;;;1.10;;
74777;SDS011;63298;53.164;8.610;2022-12-08T07:00:21;0.90;;;0.90;;
74777;SDS011;63298;53.164;8.610;2022-12-08T07:02:47;1.00;;;1.00;;
74777;SDS011;63298;53.164;8.610;2022-12-08T07:05:12;1.58;;;1.27;;
74777;SDS011;63298;53.164;8.610;2022-12-08T07:07:38;1.33;;;1.00;;
74777;SDS011;63298;53.164;8.610;2022-12-08T07:10:03;1.02;;;0.93;;
74777;SDS011;63298;53.164;8.610;2022-12-08T07:12:29;2.13;;;1.05;;
74777;SDS011;63298;53.164;8.610;2022-12-08T07:14:54;1.20;;;1.20;;
74777;SDS011;63298;53.164;8.610;2022-12-08T07:17:20;1.27;;;1.17;;
74777;SDS011;63298;53.164;8.610;2022-12-08T07:19:45;1.73;;;1.30;;
74777;SDS011;63298;53.164;8.610;2022-12-08T07:22:10;1.33;;;1.20;;
74777;SDS011;63298;53.164;8.610;2022-12-08T07:24:36;1.92;;;1.45;;
74777;SDS011;63298;53.164;8.610;2022-12-08T07:27:01;1.35;;;1.25;;
74777;SDS011;63298;53.164;8.610;2022-12-08T07:29:26;1.52;;;1.40;;
74777;SDS011;63298;53.164;8.610;2022-12-08T07:31:51;2.67;;;1.42;;
74777;SDS011;63298;53.164;8.610;2022-12-08T07:34:17;2.40;;;1.60;;
74777;SDS011;63298;53.164;8.610;2022-12-08T07:36:42;1.83;;;1.70;;
74777;SDS011;63298;53.164;8.610;2022-12-08T07:39:08;3.00;;;2.28;;
74777;SDS011;63298;53.164;8.610;2022-12-08T07:41:33;2.10;;;1.90;;
74777;SDS011;63298;53.164;8.610;2022-12-08T07:43:58;2.30;;;1.40;;
74777;SDS011;63298;53.164;8.610;2022-12-08T07:46:24;6.45;;;1.50;;
74777;SDS011;63298;53.164;8.610;2022-12-08T07:48:50;4.13;;;1.45;;
74777;SDS011;63298;53.164;8.610;2022-12-08T07:51:16;3.13;;;1.52;;
74777;SDS011;63298;53.164;8.610;2022-12-08T07:53:42;2.63;;;1.58;;
74777;SDS011;63298;53.164;8.610;2022-12-08T07:56:10;1.98;;;1.50;;
74777;SDS011;63298;53.164;8.610;2022-12-08T07:58:36;4.85;;;1.55;;
74777;SDS011;63298;53.164;8.610;2022-12-08T08:01:02;1.80;;;1.70;;
74777;SDS011;63298;53.164;8.610;2022-12-08T08:03:27;1.50;;;1.40;;
74777;SDS011;63298;53.164;8.610;2022-12-08T08:05:53;2.38;;;1.25;;
74777;SDS011;63298;53.164;8.610;2022-12-08T08:08:18;1.63;;;1.40;;
74777;SDS011;63298;53.164;8.610;2022-12-08T08:10:44;1.20;;;1.00;;
74777;SDS011;63298;53.164;8.610;2022-12-08T08:13:10;1.08;;;1.00;;
74777;SDS011;63298;53.164;8.610;2022-12-08T08:15:35;1.23;;;1.10;;
74777;SDS011;63298;53.164;8.610;2022-12-08T08:18:00;1.10;;;1.10;;
74777;SDS011;63298;53.164;8.610;2022-12-08T08:20:26;0.95;;;0.95;;
74777;SDS011;63298;53.164;8.610;2022-12-08T08:22:51;1.42;;;1.33;;
74777;SDS011;63298;53.164;8.610;2022-12-08T08:25:17;1.17;;;1.17;;
74777;SDS011;63298;53.164;8.610;2022-12-08T08:27:44;1.17;;;1.10;;
74777;SDS011;63298;53.164;8.610;2022-12-08T08:30:10;1.52;;;1.33;;
74777;SDS011;63298;53.164;8.610;2022-12-08T08:35:04;1.20;;;1.10;;
74777;SDS011;63298;53.164;8.610;2022-12-08T08:37:30;1.30;;;1.20;;
74777;SDS011;63298;53.164;8.610;2022-12-08T08:39:56;1.20;;;1.10;;
74777;SDS011;63298;53.164;8.610;2022-12-08T08:42:21;1.20;;;1.00;;
74777;SDS011;63298;53.164;8.610;2022-12-08T08:44:47;1.20;;;1.10;;
74777;SDS011;63298;53.164;8.610;2022-12-08T08:47:12;2.00;;;1.30;;
74777;SDS011;63298;53.164;8.610;2022-12-08T08:49:38;2.35;;;1.30;;
74777;SDS011;63298;53.164;8.610;2022-12-08T08:52:03;1.67;;;1.20;;
74777;SDS011;63298;53.164;8.610;2022-12-08T08:54:29;1.55;;;1.00;;
74777;SDS011;63298;53.164;8.610;2022-12-08T08:56:56;1.08;;;0.98;;
74777;SDS011;63298;53.164;8.610;2022-12-08T08:59:21;3.25;;;1.02;;
74777;SDS011;63298;53.164;8.610;2022-12-08T09:01:46;2.45;;;1.23;;
74777;SDS011;63298;53.164;8.610;2022-12-08T09:04:12;0.97;;;0.97;;
74777;SDS011;63298;53.164;8.610;2022-12-08T09:06:37;1.08;;;1.08;;
74777;SDS011;63298;53.164;8.610;2022-12-08T09:09:02;1.30;;;1.20;;
74777;SDS011;63298;53.164;8.610;2022-12-08T09:11:28;0.90;;;0.85;;
74777;SDS011;63298;53.164;8.610;2022-12-08T09:13:53;1.25;;;1.00;;
74777;SDS011;63298;53.164;8.610;2022-12-08T09:16:19;1.70;;;1.15;;
74777;SDS011;63298;53.164;8.610;2022-12-08T09:18:45;1.70;;;1.10;;
74777;SDS011;63298;53.164;8.610;2022-12-08T09:21:15;1.80;;;0.80;;
74777;SDS011;63298;53.164;8.610;2022-12-08T09:23:42;1.08;;;1.08;;
74777;SDS011;63298;53.164;8.610;2022-12-08T09:26:07;3.70;;;1.17;;
74777;SDS011;63298;53.164;8.610;2022-12-08T09:28:34;1.27;;;1.17;;
74777;SDS011;63298;53.164;8.610;2022-12-08T09:30:59;2.25;;;1.20;;
74777;SDS011;63298;53.164;8.610;2022-12-08T09:33:25;2.17;;;1.23;;
74777;SDS011;63298;53.164;8.610;2022-12-08T09:35:52;1.17;;;1.00;;
74777;SDS011;63298;53.164;8.610;2022-12-08T09:38:17;1.13;;;1.00;;
74777;SDS011;63298;53.164;8.610;2022-12-08T09:40:52;1.00;;;0.90;;
74777;SDS011;63298;53.164;8.610;2022-12-08T09:43:32;2.00;;;1.20;;
74777;SDS011;63298;53.164;8.610;2022-12-08T09:46:15;1.20;;;1.13;;
74777;SDS011;63298;53.164;8.610;2022-12-08T09:48:56;0.85;;;0.85;;
74777;SDS011;63298;53.164;8.610;2022-12-08T09:51:23;0.93;;;0.75;;
74777;SDS011;63298;53.164;8.610;2022-12-08T09:53:52;1.63;;;1.00;;
74777;SDS011;63298;53.164;8.610;2022-12-08T09:56:21;1.00;;;0.93;;
74777;SDS011;63298;53.164;8.610;2022-12-08T10:01:20;1.80;;;1.10;;
74777;SDS011;63298;53.164;8.610;2022-12-08T10:03:48;1.23;;;1.10;;
74777;SDS011;63298;53.164;8.610;2022-12-08T10:14:47;0.80;;;0.80;;
74777;SDS011;63298;53.164;8.610;2022-12-08T10:17:24;9.63;;;1.20;;
74777;SDS011;63298;53.164;8.610;2022-12-08T10:19:56;0.93;;;0.90;;
74777;SDS011;63298;53.164;8.610;2022-12-08T10:22:27;0.88;;;0.88;;
74777;SDS011;63298;53.164;8.610;2022-12-08T10:24:59;0.93;;;0.85;;
74777;SDS011;63298;53.164;8.610;2022-12-08T10:27:31;3.17;;;1.10;;
74777;SDS011;63298;53.164;8.610;2022-12-08T10:29:59;1.75;;;0.85;;
74777;SDS011;63298;53.164;8.610;2022-12-08T10:32:27;2.65;;;0.80;;
74777;SDS011;63298;53.164;8.610;2022-12-08T10:37:24;1.50;;;0.93;;
74777;SDS011;63298;53.164;8.610;2022-12-08T10:39:55;4.25;;;1.17;;
74777;SDS011;63298;53.164;8.610;2022-12-08T10:42:23;1.85;;;0.75;;
74777;SDS011;63298;53.164;8.610;2022-12-08T10:47:24;0.77;;;0.77;;
74777;SDS011;63298;53.164;8.610;2022-12-08T10:52:57;3.92;;;0.95;;
74777;SDS011;63298;53.164;8.610;2022-12-08T10:55:24;1.17;;;1.00;;
74777;SDS011;63298;53.164;8.610;2022-12-08T10:57:50;1.08;;;0.82;;
74777;SDS011;63298;53.164;8.610;2022-12-08T11:00:20;3.03;;;0.98;;
74777;SDS011;63298;53.164;8.610;2022-12-08T11:03:01;1.00;;;0.90;;
74777;SDS011;63298;53.164;8.610;2022-12-08T11:05:31;0.90;;;0.90;;
74777;SDS011;63298;53.164;8.610;2022-12-08T11:07:59;1.30;;;1.20;;
74777;SDS011;63298;53.164;8.610;2022-12-08T11:10:36;1.13;;;1.00;;
74777;SDS011;63298;53.164;8.610;2022-12-08T11:13:10;0.90;;;0.90;;
74777;SDS011;63298;53.164;8.610;2022-12-08T11:15:45;3.08;;;1.33;;
74777;SDS011;63298;53.164;8.610;2022-12-08T11:18:21;0.70;;;0.70;;
74777;SDS011;63298;53.164;8.610;2022-12-08T11:23:32;2.25;;;1.02;;
74777;SDS011;63298;53.164;8.610;2022-12-08T11:26:05;3.22;;;1.20;;
74777;SDS011;63298;53.164;8.610;2022-12-08T11:28:39;3.20;;;1.10;;
74777;SDS011;63298;53.164;8.610;2022-12-08T11:31:51;1.90;;;1.08;;
74777;SDS011;63298;53.164;8.610;2022-12-08T11:33:53;2.33;;;1.15;;
74777;SDS011;63298;53.164;8.610;2022-12-08T11:36:19;1.85;;;1.00;;
74777;SDS011;63298;53.164;8.610;2022-12-08T11:38:46;2.97;;;1.00;;
74777;SDS011;63298;53.164;8.610;2022-12-08T11:41:16;2.63;;;0.85;;
74777;SDS011;63298;53.164;8.610;2022-12-08T11:44:05;0.90;;;0.90;;
74777;SDS011;63298;53.164;8.610;2022-12-08T11:46:39;3.88;;;0.88;;
74777;SDS011;63298;53.164;8.610;2022-12-08T11:49:08;2.05;;;1.00;;
74777;SDS011;63298;53.164;8.610;2022-12-08T11:51:39;4.88;;;1.00;;
74777;SDS011;63298;53.164;8.610;2022-12-08T11:54:23;1.75;;;1.00;;
74777;SDS011;63298;53.164;8.610;2022-12-08T11:56:59;5.65;;;1.20;;
74777;SDS011;63298;53.164;8.610;2022-12-08T11:59:43;2.05;;;1.25;;
74777;SDS011;63298;53.164;8.610;2022-12-08T12:02:13;1.27;;;1.20;;
74777;SDS011;63298;53.164;8.610;2022-12-08T12:04:47;3.60;;;0.93;;
74777;SDS011;63298;53.164;8.610;2022-12-08T12:18:20;1.17;;;1.08;;
74777;SDS011;63298;53.164;8.610;2022-12-08T12:23:23;3.58;;;1.60;;
74777;SDS011;63298;53.164;8.610;2022-12-08T12:25:57;2.67;;;1.33;;
74777;SDS011;63298;53.164;8.610;2022-12-08T12:28:27;3.30;;;1.30;;
74777;SDS011;63298;53.164;8.610;2022-12-08T12:31:01;2.35;;;1.30;;
74777;SDS011;63298;53.164;8.610;2022-12-08T12:33:31;2.38;;;1.08;;
74777;SDS011;63298;53.164;8.610;2022-12-08T12:36:01;1.27;;;1.05;;
74777;SDS011;63298;53.164;8.610;2022-12-08T12:38:33;1.10;;;0.90;;
74777;SDS011;63298;53.164;8.610;2022-12-08T12:41:01;2.05;;;1.13;;
74777;SDS011;63298;53.164;8.610;2022-12-08T12:43:33;2.33;;;1.30;;
74777;SDS011;63298;53.164;8.610;2022-12-08T12:48:47;1.08;;;0.95;;
74777;SDS011;63298;53.164;8.610;2022-12-08T12:53:59;0.95;;;0.90;;
74777;SDS011;63298;53.164;8.610;2022-12-08T12:56:54;3.42;;;1.00;;
74777;SDS011;63298;53.164;8.610;2022-12-08T12:59:20;3.05;;;1.10;;
74777;SDS011;63298;53.164;8.610;2022-12-08T13:01:59;1.58;;;1.13;;
74777;SDS011;63298;53.164;8.610;2022-12-08T13:04:34;2.22;;;1.00;;
74777;SDS011;63298;53.164;8.610;2022-12-08T13:07:01;6.47;;;3.30;;
74777;SDS011;63298;53.164;8.610;2022-12-08T13:09:34;3.13;;;0.90;;
74777;SDS011;63298;53.164;8.610;2022-12-08T13:12:09;5.95;;;1.17;;
74777;SDS011;63298;53.164;8.610;2022-12-08T13:14:44;6.00;;;1.33;;
74777;SDS011;63298;53.164;8.610;2022-12-08T13:17:11;6.53;;;1.13;;
74777;SDS011;63298;53.164;8.610;2022-12-08T13:19:40;4.93;;;0.85;;
74777;SDS011;63298;53.164;8.610;2022-12-08T13:28:24;4.85;;;0.93;;
74777;SDS011;63298;53.164;8.610;2022-12-08T13:30:59;1.98;;;0.73;;
74777;SDS011;63298;53.164;8.610;2022-12-08T13:33:29;2.40;;;1.20;;
74777;SDS011;63298;53.164;8.610;2022-12-08T13:36:04;4.63;;;1.05;;
74777;SDS011;63298;53.164;8.610;2022-12-08T13:38:46;5.22;;;1.02;;
74777;SDS011;63298;53.164;8.610;2022-12-08T13:41:23;3.80;;;1.10;;
74777;SDS011;63298;53.164;8.610;2022-12-08T13:44:20;2.75;;;1.60;;
74777;SDS011;63298;53.164;8.610;2022-12-08T13:46:49;5.53;;;1.50;;
74777;SDS011;63298;53.164;8.610;2022-12-08T13:49:18;3.03;;;0.93;;
74777;SDS011;63298;53.164;8.610;2022-12-08T13:51:48;2.45;;;0.75;;
74777;SDS011;63298;53.164;8.610;2022-12-08T13:54:19;4.50;;;1.00;;
74777;SDS011;63298;53.164;8.610;2022-12-08T13:56:50;1.80;;;0.98;;
74777;SDS011;63298;53.164;8.610;2022-12-08T14:01:46;3.03;;;0.93;;
74777;SDS011;63298;53.164;8.610;2022-12-08T14:04:17;1.85;;;0.95;;
74777;SDS011;63298;53.164;8.610;2022-12-08T14:06:48;7.75;;;2.60;;
74777;SDS011;63298;53.164;8.610;2022-12-08T14:09:20;6.35;;;2.63;;
74777;SDS011;63298;53.164;8.610;2022-12-08T14:11:52;5.10;;;2.30;;
74777;SDS011;63298;53.164;8.610;2022-12-08T14:14:26;3.55;;;1.70;;
74777;SDS011;63298;53.164;8.610;2022-12-08T14:16:55;2.53;;;1.25;;
74777;SDS011;63298;53.164;8.610;2022-12-08T14:19:25;6.05;;;1.38;;
74777;SDS011;63298;53.164;8.610;2022-12-08T14:22:00;6.28;;;1.35;;
74777;SDS011;63298;53.164;8.610;2022-12-08T14:24:39;1.20;;;1.10;;
74777;SDS011;63298;53.164;8.610;2022-12-08T14:27:19;2.67;;;1.30;;
74777;SDS011;63298;53.164;8.610;2022-12-08T14:35:46;2.97;;;1.60;;
74777;SDS011;63298;53.164;8.610;2022-12-08T14:40:32;5.43;;;1.30;;
74777;SDS011;63298;53.164;8.610;2022-12-08T14:45:33;2.85;;;1.08;;
74777;SDS011;63298;53.164;8.610;2022-12-08T14:51:29;3.00;;;1.00;;
74777;SDS011;63298;53.164;8.610;2022-12-08T14:56:32;6.88;;;1.23;;
74777;SDS011;63298;53.164;8.610;2022-12-08T14:59:13;2.97;;;1.45;;
74777;SDS011;63298;53.164;8.610;2022-12-08T15:01:41;2.83;;;1.42;;
74777;SDS011;63298;53.164;8.610;2022-12-08T15:04:12;3.30;;;1.20;;
74777;SDS011;63298;53.164;8.610;2022-12-08T15:06:46;1.90;;;0.88;;
74777;SDS011;63298;53.164;8.610;2022-12-08T15:09:41;0.93;;;0.93;;
74777;SDS011;63298;53.164;8.610;2022-12-08T15:14:39;1.80;;;0.80;;
74777;SDS011;63298;53.164;8.610;2022-12-08T15:20:33;4.03;;;0.88;;
74777;SDS011;63298;53.164;8.610;2022-12-08T15:23:18;5.53;;;1.10;;
74777;SDS011;63298;53.164;8.610;2022-12-08T15:25:43;3.40;;;1.45;;
74777;SDS011;63298;53.164;8.610;2022-12-08T15:28:11;2.67;;;1.50;;
74777;SDS011;63298;53.164;8.610;2022-12-08T15:30:37;2.30;;;1.13;;
74777;SDS011;63298;53.164;8.610;2022-12-08T15:33:03;2.50;;;1.20;;
74777;SDS011;63298;53.164;8.610;2022-12-08T15:35:28;5.97;;;1.42;;
74777;SDS011;63298;53.164;8.610;2022-12-08T15:37:53;3.00;;;1.40;;
74777;SDS011;63298;53.164;8.610;2022-12-08T15:40:19;5.72;;;2.10;;
74777;SDS011;63298;53.164;8.610;2022-12-08T15:42:45;5.15;;;1.90;;
74777;SDS011;63298;53.164;8.610;2022-12-08T15:45:11;5.88;;;2.00;;
74777;SDS011;63298;53.164;8.610;2022-12-08T15:47:37;4.35;;;2.35;;
74777;SDS011;63298;53.164;8.610;2022-12-08T15:50:03;3.15;;;2.35;;
74777;SDS011;63298;53.164;8.610;2022-12-08T15:52:29;3.67;;;1.90;;
74777;SDS011;63298;53.164;8.610;2022-12-08T15:54:54;4.97;;;2.40;;
74777;SDS011;63298;53.164;8.610;2022-12-08T15:59:49;3.47;;;1.70;;
74777;SDS011;63298;53.164;8.610;2022-12-08T16:02:15;3.60;;;1.83;;
74777;SDS011;63298;53.164;8.610;2022-12-08T16:04:41;3.72;;;1.75;;
74777;SDS011;63298;53.164;8.610;2022-12-08T16:07:10;4.38;;;1.80;;
74777;SDS011;63298;53.164;8.610;2022-12-08T16:09:47;4.63;;;2.00;;
74777;SDS011;63298;53.164;8.610;2022-12-08T16:12:19;2.83;;;2.20;;
74777;SDS011;63298;53.164;8.610;2022-12-08T16:14:46;5.03;;;2.70;;
74777;SDS011;63298;53.164;8.610;2022-12-08T16:17:12;7.83;;;2.87;;
74777;SDS011;63298;53.164;8.610;2022-12-08T16:19:38;8.18;;;3.50;;
74777;SDS011;63298;53.164;8.610;2022-12-08T16:22:04;7.88;;;3.35;;
74777;SDS011;63298;53.164;8.610;2022-12-08T16:24:29;5.38;;;3.25;;
74777;SDS011;63298;53.164;8.610;2022-12-08T16:26:55;6.57;;;3.40;;
74777;SDS011;63298;53.164;8.610;2022-12-08T16:29:21;5.72;;;3.50;;
74777;SDS011;63298;53.164;8.610;2022-12-08T16:31:46;14.07;;;4.22;;
74777;SDS011;63298;53.164;8.610;2022-12-08T16:34:12;10.38;;;4.80;;
74777;SDS011;63298;53.164;8.610;2022-12-08T16:36:38;13.93;;;4.80;;
74777;SDS011;63298;53.164;8.610;2022-12-08T16:39:03;8.60;;;3.95;;
74777;SDS011;63298;53.164;8.610;2022-12-08T16:41:28;10.55;;;3.67;;
74777;SDS011;63298;53.164;8.610;2022-12-08T16:43:54;12.32;;;4.30;;
74777;SDS011;63298;53.164;8.610;2022-12-08T16:46:19;10.70;;;5.60;;
74777;SDS011;63298;53.164;8.610;2022-12-08T16:48:45;9.90;;;4.78;;